createdAt,value
2022-08-17T18:21:06.760Z,27.30
2022-08-17T18:23:36.218Z,24.90
2022-08-17T18:26:07.144Z,24.50
2022-08-17T18:28:44.509Z,24.50
2022-08-17T18:31:23.030Z,24.60
2022-08-17T18:33:54.471Z,24.80
2022-08-17T18:36:29.083Z,24.50
2022-08-17T18:39:15.564Z,24.30
2022-08-17T18:41:48.993Z,24.00
2022-08-17T18:44:29.155Z,23.80
2022-08-17T18:47:09.475Z,23.70
2022-08-17T18:49:38.690Z,23.10
2022-08-17T18:52:18.110Z,22.50
2022-08-17T18:55:05.900Z,22.10
2022-08-17T18:57:39.204Z,21.70
2022-08-17T19:00:17.137Z,21.40
2022-08-17T19:02:55.442Z,21.10
2022-08-17T19:05:32.940Z,21.10
2022-08-17T19:08:25.202Z,21.10
2022-08-17T19:10:58.467Z,21.00
2022-08-17T19:13:35.442Z,21.00
2022-08-17T19:16:15.010Z,21.10
2022-08-17T19:18:49.230Z,21.10
2022-08-17T19:21:23.002Z,21.00
2022-08-17T19:23:59.165Z,21.00
2022-08-17T19:26:51.007Z,21.10
2022-08-17T19:29:26.577Z,21.20
2022-08-17T19:31:58.873Z,21.30
2022-08-17T19:34:33.906Z,21.50
2022-08-17T19:37:12.964Z,21.60
2022-08-17T19:40:01.603Z,21.60
2022-08-17T19:42:47.817Z,21.40
2022-08-17T19:45:40.155Z,21.50
2022-08-17T19:48:21.101Z,21.50
2022-08-17T19:50:56.670Z,21.60
2022-08-17T19:54:01.723Z,21.90
2022-08-17T19:56:31.958Z,21.90
2022-08-17T19:59:06.009Z,22.10
2022-08-17T20:01:50.947Z,22.40
2022-08-17T20:04:33.433Z,22.50
2022-08-17T20:07:09.552Z,22.40
2022-08-17T20:09:40.462Z,22.40
2022-08-17T20:12:12.474Z,22.50
2022-08-17T20:14:51.734Z,22.50
2022-08-17T20:17:28.756Z,22.40
2022-08-17T20:20:04.186Z,22.20
2022-08-17T20:22:52.305Z,22.30
2022-08-17T20:25:30.297Z,22.40
2022-08-17T20:28:16.011Z,22.30
2022-08-17T20:30:45.660Z,22.50
2022-08-17T20:33:27.714Z,22.40
2022-08-17T20:36:07.739Z,22.50
2022-08-17T20:38:42.762Z,22.40
2022-08-17T20:41:14.745Z,22.50
2022-08-17T20:43:51.503Z,22.50
2022-08-17T20:46:31.857Z,22.60
2022-08-17T20:49:19.342Z,22.70
2022-08-17T20:52:02.342Z,23.00
2022-08-17T20:54:50.299Z,23.00
2022-08-17T20:57:47.514Z,23.00
2022-08-17T21:00:42.528Z,23.00
2022-08-17T21:03:51.110Z,23.10
2022-08-17T21:06:25.108Z,22.90
2022-08-17T21:08:59.151Z,23.20
2022-08-17T21:12:04.147Z,23.40
2022-08-17T21:14:57.647Z,23.50
2022-08-17T21:17:48.559Z,23.50
2022-08-17T21:20:33.384Z,23.50
2022-08-17T21:23:35.123Z,23.50
2022-08-17T21:26:23.670Z,23.50
2022-08-17T21:29:17.184Z,23.40
2022-08-17T21:32:24.412Z,23.50
2022-08-17T21:35:23.866Z,23.60
2022-08-17T21:37:57.819Z,23.60
2022-08-17T21:40:31.308Z,23.50
2022-08-17T21:43:18.358Z,23.50
2022-08-17T21:46:01.196Z,23.70
2022-08-17T21:48:32.479Z,23.70
2022-08-17T21:51:09.122Z,23.80
2022-08-17T21:53:44.297Z,23.70
2022-08-17T21:56:22.397Z,23.80
2022-08-17T21:58:58.658Z,23.70
2022-08-17T22:01:30.228Z,23.70
2022-08-17T22:04:04.256Z,23.70
2022-08-17T22:06:39.187Z,23.80
2022-08-17T22:09:16.316Z,23.80
2022-08-17T22:12:06.599Z,23.90
2022-08-17T22:14:53.043Z,23.90
2022-08-17T22:17:27.526Z,24.00
2022-08-17T22:19:59.690Z,24.00
2022-08-17T22:22:32.705Z,23.90
2022-08-17T22:25:04.896Z,24.00
2022-08-17T22:27:51.971Z,24.20
2022-08-17T22:30:29.815Z,24.20
2022-08-17T22:33:00.397Z,24.30
2022-08-17T22:35:41.213Z,24.40
2022-08-17T22:38:34.950Z,24.50
2022-08-17T22:41:32.149Z,24.60
2022-08-17T22:44:14.283Z,24.60
2022-08-17T22:46:55.877Z,24.60
2022-08-17T22:49:31.426Z,24.60
2022-08-17T22:52:03.241Z,24.60
2022-08-17T22:54:50.624Z,24.40
2022-08-17T22:57:51.932Z,24.30
2022-08-17T23:00:35.521Z,24.20
2022-08-17T23:03:17.925Z,23.90
2022-08-17T23:05:48.842Z,23.90
2022-08-17T23:08:21.415Z,23.90
2022-08-17T23:10:50.760Z,23.80
2022-08-17T23:13:21.441Z,23.60
2022-08-17T23:15:52.980Z,23.40
2022-08-17T23:18:23.631Z,23.30
2022-08-17T23:20:52.879Z,23.20
2022-08-17T23:23:23.973Z,23.30
2022-08-17T23:25:54.544Z,23.20
2022-08-17T23:28:23.430Z,23.30
2022-08-17T23:30:53.893Z,23.30
2022-08-17T23:33:28.075Z,23.30
2022-08-17T23:35:58.166Z,23.10
2022-08-17T23:38:28.247Z,23.20
2022-08-17T23:41:00.126Z,23.20
2022-08-17T23:46:25.334Z,23.20
2022-08-17T23:48:54.946Z,22.90
2022-08-17T23:51:27.113Z,22.80
2022-08-17T23:54:02.101Z,22.90
2022-08-17T23:56:33.748Z,22.90
2022-08-17T23:59:02.971Z,22.60
